sensor_id;sensor_type;location;lat;lon;timestamp;temperature;humidity
12655;DHT22;6392;44.644;11.448;2023-05-31T00:02:12;23.20;99.90
12655;DHT22;6392;44.644;11.448;2023-05-31T00:04:39;23.20;99.90
12655;DHT22;6392;44.644;11.448;2023-05-31T00:07:06;23.20;99.90
12655;DHT22;6392;44.644;11.448;2023-05-31T00:09:33;23.20;99.90
12655;DHT22;6392;44.644;11.448;2023-05-31T00:11:59;23.10;99.90
12655;DHT22;6392;44.644;11.448;2023-05-31T00:14:27;23.20;99.90
12655;DHT22;6392;44.644;11.448;2023-05-31T00:16:54;23.10;99.90
12655;DHT22;6392;44.644;11.448;2023-05-31T00:19:21;23.10;99.90
12655;DHT22;6392;44.644;11.448;2023-05-31T00:21:48;23.10;99.90
12655;DHT22;6392;44.644;11.448;2023-05-31T00:24:15;23.00;99.90
12655;DHT22;6392;44.644;11.448;2023-05-31T00:26:42;23.00;99.90
12655;DHT22;6392;44.644;11.448;2023-05-31T00:29:09;23.00;99.90
12655;DHT22;6392;44.644;11.448;2023-05-31T00:31:37;23.00;99.90
12655;DHT22;6392;44.644;11.448;2023-05-31T00:34:04;23.00;99.90
12655;DHT22;6392;44.644;11.448;2023-05-31T00:36:30;23.00;99.90
12655;DHT22;6392;44.644;11.448;2023-05-31T00:38:57;23.00;99.90
12655;DHT22;6392;44.644;11.448;2023-05-31T00:41:24;22.90;99.90
12655;DHT22;6392;44.644;11.448;2023-05-31T00:43:51;22.90;99.90
12655;DHT22;6392;44.644;11.448;2023-05-31T00:46:21;22.90;99.90
12655;DHT22;6392;44.644;11.448;2023-05-31T00:48:52;22.90;99.90
12655;DHT22;6392;44.644;11.448;2023-05-31T00:51:19;22.90;99.90
12655;DHT22;6392;44.644;11.448;2023-05-31T00:53:46;22.90;99.90
12655;DHT22;6392;44.644;11.448;2023-05-31T00:56:13;22.90;99.90
12655;DHT22;6392;44.644;11.448;2023-05-31T00:58:40;22.90;99.90
12655;DHT22;6392;44.644;11.448;2023-05-31T01:01:07;22.90;99.90
12655;DHT22;6392;44.644;11.448;2023-05-31T01:03:34;22.90;99.90
12655;DHT22;6392;44.644;11.448;2023-05-31T01:06:02;22.80;99.90
12655;DHT22;6392;44.644;11.448;2023-05-31T01:08:30;22.80;99.90
12655;DHT22;6392;44.644;11.448;2023-05-31T01:10:57;22.80;99.90
12655;DHT22;6392;44.644;11.448;2023-05-31T01:13:27;22.80;99.90
12655;DHT22;6392;44.644;11.448;2023-05-31T01:16:02;22.80;99.90
12655;DHT22;6392;44.644;11.448;2023-05-31T01:18:31;22.80;99.90
12655;DHT22;6392;44.644;11.448;2023-05-31T01:21:02;22.70;99.90
12655;DHT22;6392;44.644;11.448;2023-05-31T01:23:34;22.70;99.90
12655;DHT22;6392;44.644;11.448;2023-05-31T01:26:28;22.70;99.90
12655;DHT22;6392;44.644;11.448;2023-05-31T01:28:58;22.70;99.90
12655;DHT22;6392;44.644;11.448;2023-05-31T01:31:26;22.60;99.90
12655;DHT22;6392;44.644;11.448;2023-05-31T01:33:53;22.60;99.90
12655;DHT22;6392;44.644;11.448;2023-05-31T01:36:20;22.60;99.90
12655;DHT22;6392;44.644;11.448;2023-05-31T01:38:47;22.60;99.90
12655;DHT22;6392;44.644;11.448;2023-05-31T01:41:14;22.60;99.90
12655;DHT22;6392;44.644;11.448;2023-05-31T01:43:43;22.60;99.90
12655;DHT22;6392;44.644;11.448;2023-05-31T01:46:10;22.60;99.90
12655;DHT22;6392;44.644;11.448;2023-05-31T01:48:39;22.60;99.90
12655;DHT22;6392;44.644;11.448;2023-05-31T01:51:06;22.50;99.90
12655;DHT22;6392;44.644;11.448;2023-05-31T01:53:34;22.50;99.90
12655;DHT22;6392;44.644;11.448;2023-05-31T01:56:01;22.50;99.90
12655;DHT22;6392;44.644;11.448;2023-05-31T01:58:28;22.50;99.90
12655;DHT22;6392;44.644;11.448;2023-05-31T02:00:57;22.50;99.90
12655;DHT22;6392;44.644;11.448;2023-05-31T02:03:25;22.50;99.90
12655;DHT22;6392;44.644;11.448;2023-05-31T02:05:55;22.50;99.90
12655;DHT22;6392;44.644;11.448;2023-05-31T02:08:22;22.40;99.90
12655;DHT22;6392;44.644;11.448;2023-05-31T02:10:49;22.40;99.90
12655;DHT22;6392;44.644;11.448;2023-05-31T02:13:15;22.40;99.90
12655;DHT22;6392;44.644;11.448;2023-05-31T02:15:42;22.40;99.90
12655;DHT22;6392;44.644;11.448;2023-05-31T02:18:10;22.40;99.90
12655;DHT22;6392;44.644;11.448;2023-05-31T02:20:37;22.40;99.90
12655;DHT22;6392;44.644;11.448;2023-05-31T02:23:04;22.40;99.90
12655;DHT22;6392;44.644;11.448;2023-05-31T02:25:31;22.30;99.90
12655;DHT22;6392;44.644;11.448;2023-05-31T02:27:57;22.30;99.90
12655;DHT22;6392;44.644;11.448;2023-05-31T02:30:25;22.30;99.90
12655;DHT22;6392;44.644;11.448;2023-05-31T02:32:52;22.30;99.90
12655;DHT22;6392;44.644;11.448;2023-05-31T02:35:20;22.30;99.90
12655;DHT22;6392;44.644;11.448;2023-05-31T02:37:47;22.30;99.90
12655;DHT22;6392;44.644;11.448;2023-05-31T02:40:14;22.30;99.90
12655;DHT22;6392;44.644;11.448;2023-05-31T02:42:41;22.30;99.90
12655;DHT22;6392;44.644;11.448;2023-05-31T02:45:09;22.30;99.90
12655;DHT22;6392;44.644;11.448;2023-05-31T02:47:36;22.30;99.90
12655;DHT22;6392;44.644;11.448;2023-05-31T02:50:03;22.20;99.90
12655;DHT22;6392;44.644;11.448;2023-05-31T02:52:32;22.20;99.90
12655;DHT22;6392;44.644;11.448;2023-05-31T02:54:58;22.20;99.90
12655;DHT22;6392;44.644;11.448;2023-05-31T02:57:25;22.20;99.90
12655;DHT22;6392;44.644;11.448;2023-05-31T02:59:54;22.20;99.90
12655;DHT22;6392;44.644;11.448;2023-05-31T03:02:21;22.10;99.90
12655;DHT22;6392;44.644;11.448;2023-05-31T03:04:48;22.10;99.90
12655;DHT22;6392;44.644;11.448;2023-05-31T03:07:16;22.10;99.90
12655;DHT22;6392;44.644;11.448;2023-05-31T03:09:44;22.10;99.90
12655;DHT22;6392;44.644;11.448;2023-05-31T03:12:11;22.10;99.90
12655;DHT22;6392;44.644;11.448;2023-05-31T03:14:37;22.10;99.90
12655;DHT22;6392;44.644;11.448;2023-05-31T03:17:04;22.10;99.90
12655;DHT22;6392;44.644;11.448;2023-05-31T03:19:31;22.10;99.90
12655;DHT22;6392;44.644;11.448;2023-05-31T03:21:58;22.00;99.90
12655;DHT22;6392;44.644;11.448;2023-05-31T03:24:25;22.00;99.90
12655;DHT22;6392;44.644;11.448;2023-05-31T03:26:54;22.00;99.90
12655;DHT22;6392;44.644;11.448;2023-05-31T03:29:21;22.00;99.90
12655;DHT22;6392;44.644;11.448;2023-05-31T03:31:48;22.00;99.90
12655;DHT22;6392;44.644;11.448;2023-05-31T03:34:15;22.00;99.90
12655;DHT22;6392;44.644;11.448;2023-05-31T03:36:42;21.90;99.90
12655;DHT22;6392;44.644;11.448;2023-05-31T03:39:08;21.90;99.90
12655;DHT22;6392;44.644;11.448;2023-05-31T03:41:36;21.90;99.90
12655;DHT22;6392;44.644;11.448;2023-05-31T03:44:04;21.90;99.90
12655;DHT22;6392;44.644;11.448;2023-05-31T03:46:30;21.90;99.90
12655;DHT22;6392;44.644;11.448;2023-05-31T03:48:57;21.90;99.90
12655;DHT22;6392;44.644;11.448;2023-05-31T03:51:24;21.90;99.90
12655;DHT22;6392;44.644;11.448;2023-05-31T03:53:51;21.90;99.90
12655;DHT22;6392;44.644;11.448;2023-05-31T03:56:17;21.90;99.90
12655;DHT22;6392;44.644;11.448;2023-05-31T03:58:44;21.80;99.90
12655;DHT22;6392;44.644;11.448;2023-05-31T04:01:12;21.90;99.90
12655;DHT22;6392;44.644;11.448;2023-05-31T04:03:39;21.80;99.90
12655;DHT22;6392;44.644;11.448;2023-05-31T04:06:06;21.80;99.90
12655;DHT22;6392;44.644;11.448;2023-05-31T04:08:33;21.80;99.90
12655;DHT22;6392;44.644;11.448;2023-05-31T04:11:00;21.80;99.90
12655;DHT22;6392;44.644;11.448;2023-05-31T04:13:27;21.80;99.90
12655;DHT22;6392;44.644;11.448;2023-05-31T04:15:54;21.80;99.90
12655;DHT22;6392;44.644;11.448;2023-05-31T04:18:22;21.80;99.90
12655;DHT22;6392;44.644;11.448;2023-05-31T04:20:49;21.80;99.90
12655;DHT22;6392;44.644;11.448;2023-05-31T04:23:16;21.80;99.90
12655;DHT22;6392;44.644;11.448;2023-05-31T04:25:42;21.80;99.90
12655;DHT22;6392;44.644;11.448;2023-05-31T04:28:10;21.80;99.90
12655;DHT22;6392;44.644;11.448;2023-05-31T04:30:38;21.90;99.90
12655;DHT22;6392;44.644;11.448;2023-05-31T04:33:04;21.90;99.90
12655;DHT22;6392;44.644;11.448;2023-05-31T04:35:33;21.90;99.90
12655;DHT22;6392;44.644;11.448;2023-05-31T04:37:59;21.90;99.90
12655;DHT22;6392;44.644;11.448;2023-05-31T04:40:28;21.90;99.90
12655;DHT22;6392;44.644;11.448;2023-05-31T04:42:57;21.90;99.90
12655;DHT22;6392;44.644;11.448;2023-05-31T04:45:24;21.90;99.90
12655;DHT22;6392;44.644;11.448;2023-05-31T04:47:51;21.90;99.90
12655;DHT22;6392;44.644;11.448;2023-05-31T04:50:17;21.90;99.90
12655;DHT22;6392;44.644;11.448;2023-05-31T04:52:46;21.90;99.90
12655;DHT22;6392;44.644;11.448;2023-05-31T04:55:12;21.90;99.90
12655;DHT22;6392;44.644;11.448;2023-05-31T04:57:40;21.90;99.90
12655;DHT22;6392;44.644;11.448;2023-05-31T05:00:07;21.90;99.90
12655;DHT22;6392;44.644;11.448;2023-05-31T05:02:35;22.00;99.90
12655;DHT22;6392;44.644;11.448;2023-05-31T05:05:02;22.00;99.90
12655;DHT22;6392;44.644;11.448;2023-05-31T05:07:30;22.00;99.90
12655;DHT22;6392;44.644;11.448;2023-05-31T05:09:58;22.00;99.90
12655;DHT22;6392;44.644;11.448;2023-05-31T05:12:25;22.00;99.90
12655;DHT22;6392;44.644;11.448;2023-05-31T05:14:52;22.00;99.90
12655;DHT22;6392;44.644;11.448;2023-05-31T05:17:18;22.00;99.90
12655;DHT22;6392;44.644;11.448;2023-05-31T05:19:46;22.10;99.90
12655;DHT22;6392;44.644;11.448;2023-05-31T05:22:12;22.20;99.90
12655;DHT22;6392;44.644;11.448;2023-05-31T05:24:39;22.20;99.90
12655;DHT22;6392;44.644;11.448;2023-05-31T05:27:08;22.30;99.90
12655;DHT22;6392;44.644;11.448;2023-05-31T05:29:34;22.40;99.90
12655;DHT22;6392;44.644;11.448;2023-05-31T05:32:01;22.40;99.90
12655;DHT22;6392;44.644;11.448;2023-05-31T05:34:28;22.40;99.90
12655;DHT22;6392;44.644;11.448;2023-05-31T05:36:55;22.40;99.90
12655;DHT22;6392;44.644;11.448;2023-05-31T05:39:22;22.40;99.90
12655;DHT22;6392;44.644;11.448;2023-05-31T05:41:49;22.40;99.90
12655;DHT22;6392;44.644;11.448;2023-05-31T05:44:17;22.40;99.90
12655;DHT22;6392;44.644;11.448;2023-05-31T05:46:44;22.40;99.90
12655;DHT22;6392;44.644;11.448;2023-05-31T05:49:10;22.40;99.90
12655;DHT22;6392;44.644;11.448;2023-05-31T05:51:37;22.40;99.90
12655;DHT22;6392;44.644;11.448;2023-05-31T05:54:04;22.40;99.90
12655;DHT22;6392;44.644;11.448;2023-05-31T05:56:31;22.40;99.90
12655;DHT22;6392;44.644;11.448;2023-05-31T05:58:58;22.40;99.90
12655;DHT22;6392;44.644;11.448;2023-05-31T06:01:26;22.40;99.90
12655;DHT22;6392;44.644;11.448;2023-05-31T06:03:54;22.40;99.90
12655;DHT22;6392;44.644;11.448;2023-05-31T06:06:21;22.50;99.90
12655;DHT22;6392;44.644;11.448;2023-05-31T06:08:48;22.50;99.90
12655;DHT22;6392;44.644;11.448;2023-05-31T06:11:15;22.50;99.90
12655;DHT22;6392;44.644;11.448;2023-05-31T06:13:43;22.50;99.90
12655;DHT22;6392;44.644;11.448;2023-05-31T06:16:10;22.60;99.90
12655;DHT22;6392;44.644;11.448;2023-05-31T06:18:39;22.60;99.90
12655;DHT22;6392;44.644;11.448;2023-05-31T06:21:05;22.60;99.90
12655;DHT22;6392;44.644;11.448;2023-05-31T06:23:32;22.60;99.90
12655;DHT22;6392;44.644;11.448;2023-05-31T06:25:59;22.60;99.90
12655;DHT22;6392;44.644;11.448;2023-05-31T06:28:26;22.60;99.90
12655;DHT22;6392;44.644;11.448;2023-05-31T06:30:53;22.60;99.90
12655;DHT22;6392;44.644;11.448;2023-05-31T06:33:20;22.60;99.90
12655;DHT22;6392;44.644;11.448;2023-05-31T06:35:48;22.60;99.90
12655;DHT22;6392;44.644;11.448;2023-05-31T06:38:15;22.60;99.90
12655;DHT22;6392;44.644;11.448;2023-05-31T06:40:43;22.60;99.90
12655;DHT22;6392;44.644;11.448;2023-05-31T06:43:10;22.70;99.90
12655;DHT22;6392;44.644;11.448;2023-05-31T06:45:37;22.70;99.90
12655;DHT22;6392;44.644;11.448;2023-05-31T06:48:07;22.70;99.90
12655;DHT22;6392;44.644;11.448;2023-05-31T06:50:33;22.70;99.90
12655;DHT22;6392;44.644;11.448;2023-05-31T06:53:01;22.70;99.90
12655;DHT22;6392;44.644;11.448;2023-05-31T06:55:28;22.70;99.90
12655;DHT22;6392;44.644;11.448;2023-05-31T06:57:55;22.70;99.90
12655;DHT22;6392;44.644;11.448;2023-05-31T07:00:22;22.70;99.90
12655;DHT22;6392;44.644;11.448;2023-05-31T07:02:49;22.80;99.90
12655;DHT22;6392;44.644;11.448;2023-05-31T07:05:16;22.90;99.90
12655;DHT22;6392;44.644;11.448;2023-05-31T07:07:43;22.90;99.90
12655;DHT22;6392;44.644;11.448;2023-05-31T07:10:11;23.00;99.90
12655;DHT22;6392;44.644;11.448;2023-05-31T07:12:38;23.00;99.90
12655;DHT22;6392;44.644;11.448;2023-05-31T07:15:05;23.00;99.90
12655;DHT22;6392;44.644;11.448;2023-05-31T07:17:32;23.00;99.90
12655;DHT22;6392;44.644;11.448;2023-05-31T07:19:59;22.90;99.90
12655;DHT22;6392;44.644;11.448;2023-05-31T07:22:26;22.90;99.90
12655;DHT22;6392;44.644;11.448;2023-05-31T07:24:53;22.90;99.90
12655;DHT22;6392;44.644;11.448;2023-05-31T07:27:21;23.00;99.90
12655;DHT22;6392;44.644;11.448;2023-05-31T07:29:48;23.00;99.90
12655;DHT22;6392;44.644;11.448;2023-05-31T07:32:15;23.10;99.90
12655;DHT22;6392;44.644;11.448;2023-05-31T07:34:41;23.10;99.90
12655;DHT22;6392;44.644;11.448;2023-05-31T07:37:08;23.10;99.90
12655;DHT22;6392;44.644;11.448;2023-05-31T07:39:35;23.10;99.90
12655;DHT22;6392;44.644;11.448;2023-05-31T07:42:02;23.20;99.90
12655;DHT22;6392;44.644;11.448;2023-05-31T07:44:30;23.20;99.90
12655;DHT22;6392;44.644;11.448;2023-05-31T07:46:57;23.20;99.90
12655;DHT22;6392;44.644;11.448;2023-05-31T07:49:24;23.20;99.90
12655;DHT22;6392;44.644;11.448;2023-05-31T07:51:51;23.20;99.90
12655;DHT22;6392;44.644;11.448;2023-05-31T07:54:18;23.20;99.90
12655;DHT22;6392;44.644;11.448;2023-05-31T07:56:45;23.30;99.90
12655;DHT22;6392;44.644;11.448;2023-05-31T07:59:11;23.30;99.90
12655;DHT22;6392;44.644;11.448;2023-05-31T08:01:40;23.30;99.90
12655;DHT22;6392;44.644;11.448;2023-05-31T08:04:07;23.30;99.90
12655;DHT22;6392;44.644;11.448;2023-05-31T08:06:34;23.30;99.90
12655;DHT22;6392;44.644;11.448;2023-05-31T08:09:01;23.30;99.90
12655;DHT22;6392;44.644;11.448;2023-05-31T08:11:30;23.30;99.90
12655;DHT22;6392;44.644;11.448;2023-05-31T08:13:56;23.30;99.90
12655;DHT22;6392;44.644;11.448;2023-05-31T08:16:23;23.30;99.90
12655;DHT22;6392;44.644;11.448;2023-05-31T08:18:51;23.30;99.90
12655;DHT22;6392;44.644;11.448;2023-05-31T08:21:18;23.40;99.90
12655;DHT22;6392;44.644;11.448;2023-05-31T08:23:45;23.40;99.90
12655;DHT22;6392;44.644;11.448;2023-05-31T08:26:12;23.40;99.90
12655;DHT22;6392;44.644;11.448;2023-05-31T08:28:38;23.40;99.90
12655;DHT22;6392;44.644;11.448;2023-05-31T08:31:06;23.40;99.90
12655;DHT22;6392;44.644;11.448;2023-05-31T08:33:33;23.50;99.90
12655;DHT22;6392;44.644;11.448;2023-05-31T08:36:01;23.40;99.90
12655;DHT22;6392;44.644;11.448;2023-05-31T08:38:29;23.50;99.90
12655;DHT22;6392;44.644;11.448;2023-05-31T08:40:57;23.50;99.90
12655;DHT22;6392;44.644;11.448;2023-05-31T08:43:24;23.50;99.90
12655;DHT22;6392;44.644;11.448;2023-05-31T08:45:52;23.60;99.90
12655;DHT22;6392;44.644;11.448;2023-05-31T08:48:21;23.60;99.90
12655;DHT22;6392;44.644;11.448;2023-05-31T08:50:48;23.60;99.90
12655;DHT22;6392;44.644;11.448;2023-05-31T08:53:17;23.60;99.90
12655;DHT22;6392;44.644;11.448;2023-05-31T08:55:44;23.60;99.90
12655;DHT22;6392;44.644;11.448;2023-05-31T08:58:11;23.70;99.90
12655;DHT22;6392;44.644;11.448;2023-05-31T09:00:38;23.70;99.90
12655;DHT22;6392;44.644;11.448;2023-05-31T09:03:06;23.70;99.90
12655;DHT22;6392;44.644;11.448;2023-05-31T09:05:33;23.70;99.90
12655;DHT22;6392;44.644;11.448;2023-05-31T09:07:59;23.80;99.90
12655;DHT22;6392;44.644;11.448;2023-05-31T09:10:28;23.80;99.90
12655;DHT22;6392;44.644;11.448;2023-05-31T09:12:55;23.80;99.90
12655;DHT22;6392;44.644;11.448;2023-05-31T09:15:22;23.80;99.90
12655;DHT22;6392;44.644;11.448;2023-05-31T09:17:49;23.80;99.90
12655;DHT22;6392;44.644;11.448;2023-05-31T09:20:17;23.80;99.90
12655;DHT22;6392;44.644;11.448;2023-05-31T09:22:46;23.80;99.90
12655;DHT22;6392;44.644;11.448;2023-05-31T09:25:13;23.80;99.90
12655;DHT22;6392;44.644;11.448;2023-05-31T09:27:41;23.80;99.90
12655;DHT22;6392;44.644;11.448;2023-05-31T09:30:09;23.80;99.90
12655;DHT22;6392;44.644;11.448;2023-05-31T09:32:37;23.80;99.90
12655;DHT22;6392;44.644;11.448;2023-05-31T09:35:10;23.70;99.90
12655;DHT22;6392;44.644;11.448;2023-05-31T09:37:41;23.80;99.90
12655;DHT22;6392;44.644;11.448;2023-05-31T09:40:09;23.80;99.90
12655;DHT22;6392;44.644;11.448;2023-05-31T09:42:36;23.80;99.90
12655;DHT22;6392;44.644;11.448;2023-05-31T09:45:04;23.80;99.90
12655;DHT22;6392;44.644;11.448;2023-05-31T09:47:31;23.90;99.90
12655;DHT22;6392;44.644;11.448;2023-05-31T09:49:58;23.90;99.90
12655;DHT22;6392;44.644;11.448;2023-05-31T09:52:27;23.90;99.90
12655;DHT22;6392;44.644;11.448;2023-05-31T09:54:56;23.90;99.90
12655;DHT22;6392;44.644;11.448;2023-05-31T09:57:29;23.90;99.90
12655;DHT22;6392;44.644;11.448;2023-05-31T09:59:56;24.00;99.90
12655;DHT22;6392;44.644;11.448;2023-05-31T10:02:25;24.00;99.90
12655;DHT22;6392;44.644;11.448;2023-05-31T10:04:52;24.00;99.90
12655;DHT22;6392;44.644;11.448;2023-05-31T10:07:19;24.00;99.90
12655;DHT22;6392;44.644;11.448;2023-05-31T10:09:47;24.00;99.90
12655;DHT22;6392;44.644;11.448;2023-05-31T10:12:13;24.10;99.90
12655;DHT22;6392;44.644;11.448;2023-05-31T10:14:42;24.10;99.90
12655;DHT22;6392;44.644;11.448;2023-05-31T10:17:12;24.10;99.90
12655;DHT22;6392;44.644;11.448;2023-05-31T10:19:43;24.10;99.90
12655;DHT22;6392;44.644;11.448;2023-05-31T10:22:11;24.10;99.90
12655;DHT22;6392;44.644;11.448;2023-05-31T10:24:40;24.10;99.90
12655;DHT22;6392;44.644;11.448;2023-05-31T10:27:11;24.20;99.90
12655;DHT22;6392;44.644;11.448;2023-05-31T10:29:40;24.20;99.90
12655;DHT22;6392;44.644;11.448;2023-05-31T10:32:10;24.20;99.90
12655;DHT22;6392;44.644;11.448;2023-05-31T10:34:39;24.30;99.90
12655;DHT22;6392;44.644;11.448;2023-05-31T10:37:07;24.30;99.90
12655;DHT22;6392;44.644;11.448;2023-05-31T10:39:38;24.30;99.90
12655;DHT22;6392;44.644;11.448;2023-05-31T10:42:09;24.30;99.90
12655;DHT22;6392;44.644;11.448;2023-05-31T10:44:39;24.40;99.90
12655;DHT22;6392;44.644;11.448;2023-05-31T10:47:06;24.40;99.90
12655;DHT22;6392;44.644;11.448;2023-05-31T10:49:34;24.40;99.90
12655;DHT22;6392;44.644;11.448;2023-05-31T10:52:03;24.40;99.90
12655;DHT22;6392;44.644;11.448;2023-05-31T10:54:32;24.40;99.90
12655;DHT22;6392;44.644;11.448;2023-05-31T10:56:59;24.30;99.90
12655;DHT22;6392;44.644;11.448;2023-05-31T10:59:29;24.30;99.90
12655;DHT22;6392;44.644;11.448;2023-05-31T11:02:05;24.40;99.90
12655;DHT22;6392;44.644;11.448;2023-05-31T11:04:32;24.30;99.90
12655;DHT22;6392;44.644;11.448;2023-05-31T11:07:09;24.30;99.90
12655;DHT22;6392;44.644;11.448;2023-05-31T11:09:39;24.40;99.90
12655;DHT22;6392;44.644;11.448;2023-05-31T11:12:05;24.30;99.90
12655;DHT22;6392;44.644;11.448;2023-05-31T11:14:32;24.40;99.90
12655;DHT22;6392;44.644;11.448;2023-05-31T11:17:12;24.40;99.90
12655;DHT22;6392;44.644;11.448;2023-05-31T11:19:39;24.40;99.90
12655;DHT22;6392;44.644;11.448;2023-05-31T11:22:08;24.50;99.90
12655;DHT22;6392;44.644;11.448;2023-05-31T11:24:36;24.40;99.90
12655;DHT22;6392;44.644;11.448;2023-05-31T11:27:05;24.50;99.90
12655;DHT22;6392;44.644;11.448;2023-05-31T11:29:55;24.50;99.90
12655;DHT22;6392;44.644;11.448;2023-05-31T11:32:22;24.60;99.90
12655;DHT22;6392;44.644;11.448;2023-05-31T11:35:09;24.60;99.90
12655;DHT22;6392;44.644;11.448;2023-05-31T11:37:37;24.60;99.90
12655;DHT22;6392;44.644;11.448;2023-05-31T11:40:05;24.60;99.90
12655;DHT22;6392;44.644;11.448;2023-05-31T11:42:34;24.70;99.90
12655;DHT22;6392;44.644;11.448;2023-05-31T11:45:02;24.70;99.90
12655;DHT22;6392;44.644;11.448;2023-05-31T11:47:31;24.70;99.90
12655;DHT22;6392;44.644;11.448;2023-05-31T11:49:59;24.80;99.90
12655;DHT22;6392;44.644;11.448;2023-05-31T11:52:25;24.80;99.90
12655;DHT22;6392;44.644;11.448;2023-05-31T11:54:52;24.80;99.90
12655;DHT22;6392;44.644;11.448;2023-05-31T11:57:20;24.70;99.90
12655;DHT22;6392;44.644;11.448;2023-05-31T11:59:49;24.70;99.90
12655;DHT22;6392;44.644;11.448;2023-05-31T12:02:15;24.80;99.90
12655;DHT22;6392;44.644;11.448;2023-05-31T12:04:43;24.90;99.90
12655;DHT22;6392;44.644;11.448;2023-05-31T12:07:10;25.20;99.90
12655;DHT22;6392;44.644;11.448;2023-05-31T12:09:38;25.50;99.90
12655;DHT22;6392;44.644;11.448;2023-05-31T12:12:05;25.70;99.90
12655;DHT22;6392;44.644;11.448;2023-05-31T12:14:32;25.70;99.90
12655;DHT22;6392;44.644;11.448;2023-05-31T12:17:01;25.50;99.90
12655;DHT22;6392;44.644;11.448;2023-05-31T12:19:31;25.40;99.90
12655;DHT22;6392;44.644;11.448;2023-05-31T12:21:58;25.30;99.90
12655;DHT22;6392;44.644;11.448;2023-05-31T12:24:24;25.30;99.90
12655;DHT22;6392;44.644;11.448;2023-05-31T12:26:51;25.40;99.90
12655;DHT22;6392;44.644;11.448;2023-05-31T12:29:22;25.40;99.90
12655;DHT22;6392;44.644;11.448;2023-05-31T12:31:59;25.40;99.90
12655;DHT22;6392;44.644;11.448;2023-05-31T12:34:27;25.40;99.90
12655;DHT22;6392;44.644;11.448;2023-05-31T12:36:56;25.40;99.90
12655;DHT22;6392;44.644;11.448;2023-05-31T12:39:23;25.40;99.90
12655;DHT22;6392;44.644;11.448;2023-05-31T12:41:51;25.30;99.90
12655;DHT22;6392;44.644;11.448;2023-05-31T12:44:18;25.30;99.90
12655;DHT22;6392;44.644;11.448;2023-05-31T12:46:46;25.30;99.90
12655;DHT22;6392;44.644;11.448;2023-05-31T12:49:13;25.40;99.90
12655;DHT22;6392;44.644;11.448;2023-05-31T12:51:43;25.50;99.90
12655;DHT22;6392;44.644;11.448;2023-05-31T12:54:10;25.50;99.90
12655;DHT22;6392;44.644;11.448;2023-05-31T12:56:37;25.60;99.90
12655;DHT22;6392;44.644;11.448;2023-05-31T12:59:04;25.70;99.90
12655;DHT22;6392;44.644;11.448;2023-05-31T13:01:31;25.70;99.90
12655;DHT22;6392;44.644;11.448;2023-05-31T13:03:58;25.70;99.90
12655;DHT22;6392;44.644;11.448;2023-05-31T13:06:24;25.80;99.90
12655;DHT22;6392;44.644;11.448;2023-05-31T13:08:53;25.90;99.90
12655;DHT22;6392;44.644;11.448;2023-05-31T13:11:20;25.90;99.90
12655;DHT22;6392;44.644;11.448;2023-05-31T13:13:47;25.90;99.90
12655;DHT22;6392;44.644;11.448;2023-05-31T13:16:14;26.00;99.90
12655;DHT22;6392;44.644;11.448;2023-05-31T13:18:41;26.20;99.90
12655;DHT22;6392;44.644;11.448;2023-05-31T13:21:08;26.20;99.90
12655;DHT22;6392;44.644;11.448;2023-05-31T13:23:35;26.30;99.90
12655;DHT22;6392;44.644;11.448;2023-05-31T13:26:03;26.20;99.90
12655;DHT22;6392;44.644;11.448;2023-05-31T13:28:30;26.20;99.90
12655;DHT22;6392;44.644;11.448;2023-05-31T13:30:57;26.20;99.90
12655;DHT22;6392;44.644;11.448;2023-05-31T13:33:23;26.30;99.90
12655;DHT22;6392;44.644;11.448;2023-05-31T13:35:52;26.30;99.90
12655;DHT22;6392;44.644;11.448;2023-05-31T13:38:21;26.30;99.90
12655;DHT22;6392;44.644;11.448;2023-05-31T13:40:48;26.30;99.90
12655;DHT22;6392;44.644;11.448;2023-05-31T13:43:17;26.40;99.90
12655;DHT22;6392;44.644;11.448;2023-05-31T13:45:44;26.40;99.90
12655;DHT22;6392;44.644;11.448;2023-05-31T13:48:11;26.50;99.90
12655;DHT22;6392;44.644;11.448;2023-05-31T13:50:38;26.60;99.90
12655;DHT22;6392;44.644;11.448;2023-05-31T13:53:05;26.70;99.90
12655;DHT22;6392;44.644;11.448;2023-05-31T13:55:32;26.80;99.90
12655;DHT22;6392;44.644;11.448;2023-05-31T13:57:58;26.80;99.90
12655;DHT22;6392;44.644;11.448;2023-05-31T14:00:27;26.80;99.90
12655;DHT22;6392;44.644;11.448;2023-05-31T14:02:54;26.80;99.90
12655;DHT22;6392;44.644;11.448;2023-05-31T14:05:21;26.90;99.90
12655;DHT22;6392;44.644;11.448;2023-05-31T14:07:48;26.90;99.90
12655;DHT22;6392;44.644;11.448;2023-05-31T14:10:16;27.00;99.90
12655;DHT22;6392;44.644;11.448;2023-05-31T14:12:42;27.10;99.90
12655;DHT22;6392;44.644;11.448;2023-05-31T14:15:09;27.10;99.90
12655;DHT22;6392;44.644;11.448;2023-05-31T14:17:37;27.10;99.90
12655;DHT22;6392;44.644;11.448;2023-05-31T14:20:05;27.20;99.90
12655;DHT22;6392;44.644;11.448;2023-05-31T14:22:32;27.20;99.90
12655;DHT22;6392;44.644;11.448;2023-05-31T14:24:58;27.20;99.90
12655;DHT22;6392;44.644;11.448;2023-05-31T14:27:25;27.30;99.90
12655;DHT22;6392;44.644;11.448;2023-05-31T14:29:52;27.40;99.90
12655;DHT22;6392;44.644;11.448;2023-05-31T14:32:19;27.50;99.90
12655;DHT22;6392;44.644;11.448;2023-05-31T14:34:47;27.60;99.90
12655;DHT22;6392;44.644;11.448;2023-05-31T14:37:14;27.70;99.90
12655;DHT22;6392;44.644;11.448;2023-05-31T14:39:41;27.80;99.90
12655;DHT22;6392;44.644;11.448;2023-05-31T14:42:08;27.80;99.90
12655;DHT22;6392;44.644;11.448;2023-05-31T14:44:35;27.80;99.90
12655;DHT22;6392;44.644;11.448;2023-05-31T14:47:02;27.80;99.90
12655;DHT22;6392;44.644;11.448;2023-05-31T14:49:29;28.00;99.90
12655;DHT22;6392;44.644;11.448;2023-05-31T14:51:58;28.20;99.90
12655;DHT22;6392;44.644;11.448;2023-05-31T14:54:24;28.30;99.90
12655;DHT22;6392;44.644;11.448;2023-05-31T14:56:52;28.40;99.90
12655;DHT22;6392;44.644;11.448;2023-05-31T14:59:19;28.50;99.90
12655;DHT22;6392;44.644;11.448;2023-05-31T15:01:48;28.60;99.90
12655;DHT22;6392;44.644;11.448;2023-05-31T15:04:15;29.00;99.90
12655;DHT22;6392;44.644;11.448;2023-05-31T15:06:42;29.10;99.90
12655;DHT22;6392;44.644;11.448;2023-05-31T15:09:10;29.10;99.90
12655;DHT22;6392;44.644;11.448;2023-05-31T15:11:37;29.10;99.90
12655;DHT22;6392;44.644;11.448;2023-05-31T15:14:04;29.10;99.90
12655;DHT22;6392;44.644;11.448;2023-05-31T15:16:31;29.30;99.90
12655;DHT22;6392;44.644;11.448;2023-05-31T15:18:59;29.60;99.90
12655;DHT22;6392;44.644;11.448;2023-05-31T15:21:26;29.80;99.90
12655;DHT22;6392;44.644;11.448;2023-05-31T15:23:53;30.00;99.90
12655;DHT22;6392;44.644;11.448;2023-05-31T15:26:21;30.10;99.90
12655;DHT22;6392;44.644;11.448;2023-05-31T15:28:48;30.30;99.90
12655;DHT22;6392;44.644;11.448;2023-05-31T15:31:15;30.40;99.90
12655;DHT22;6392;44.644;11.448;2023-05-31T15:33:42;30.50;99.90